createdAt,value
2023-09-27T00:01:04.329Z,15.57
2023-09-27T00:03:33.946Z,15.54
2023-09-27T00:06:02.315Z,15.49
2023-09-27T00:08:31.231Z,15.47
2023-09-27T00:11:00.092Z,15.42
2023-09-27T00:13:28.621Z,15.39
2023-09-27T00:16:01.158Z,15.35
2023-09-27T00:18:31.973Z,15.33
2023-09-27T00:21:04.462Z,15.32
2023-09-27T00:23:34.576Z,15.32
2023-09-27T00:26:04.068Z,15.27
2023-09-27T00:28:32.429Z,15.20
2023-09-27T00:31:02.176Z,15.15
2023-09-27T00:33:31.109Z,15.10
2023-09-27T00:35:59.525Z,15.10
2023-09-27T00:38:29.837Z,15.15
2023-09-27T00:40:58.025Z,15.10
2023-09-27T00:43:32.275Z,15.09
2023-09-27T00:46:03.450Z,15.06
2023-09-27T00:48:36.840Z,15.07
2023-09-27T00:51:06.343Z,15.03
2023-09-27T00:53:39.066Z,15.00
2023-09-27T00:56:09.988Z,14.99
2023-09-27T00:58:41.080Z,14.99
2023-09-27T01:01:12.707Z,15.00
2023-09-27T01:03:42.686Z,14.99
2023-09-27T01:06:12.404Z,14.92
2023-09-27T01:08:42.674Z,14.85
2023-09-27T01:11:10.818Z,14.85
2023-09-27T01:13:40.080Z,14.79
2023-09-27T01:16:13.121Z,14.75
2023-09-27T01:18:41.590Z,14.69
2023-09-27T01:21:10.780Z,14.65
2023-09-27T01:23:42.902Z,14.60
2023-09-27T01:26:12.544Z,14.56
2023-09-27T01:28:42.477Z,14.54
2023-09-27T01:31:10.777Z,14.53
2023-09-27T01:33:41.807Z,14.54
2023-09-27T01:36:12.964Z,14.50
2023-09-27T01:38:43.023Z,14.42
2023-09-27T01:41:12.815Z,14.42
2023-09-27T01:43:44.921Z,14.41
2023-09-27T01:46:15.225Z,14.40
2023-09-27T01:48:43.541Z,14.37
2023-09-27T01:51:11.632Z,14.33
2023-09-27T01:53:40.221Z,14.34
2023-09-27T01:56:11.908Z,14.40
2023-09-27T01:58:40.239Z,14.48
2023-09-27T02:01:08.446Z,14.44
2023-09-27T02:03:37.210Z,14.41
2023-09-27T02:06:06.835Z,14.37
2023-09-27T02:08:36.703Z,14.30
2023-09-27T02:11:05.375Z,14.20
2023-09-27T02:13:35.379Z,14.14
2023-09-27T02:16:03.965Z,14.17
2023-09-27T02:18:32.246Z,14.17
2023-09-27T02:21:00.896Z,14.20
2023-09-27T02:23:31.959Z,14.20
2023-09-27T02:26:06.511Z,14.17
2023-09-27T02:28:36.771Z,14.10
2023-09-27T02:31:11.964Z,14.03
2023-09-27T02:33:40.563Z,13.96
2023-09-27T02:36:11.571Z,13.88
2023-09-27T02:38:41.790Z,13.86
2023-09-27T02:41:11.364Z,13.85
2023-09-27T02:43:41.926Z,13.82
2023-09-27T02:46:10.347Z,13.76
2023-09-27T02:48:39.855Z,13.73
2023-09-27T02:51:09.811Z,13.66
2023-09-27T02:53:41.312Z,13.62
2023-09-27T02:56:10.179Z,13.62
2023-09-27T02:58:41.699Z,13.61
2023-09-27T03:01:13.355Z,13.61
2023-09-27T03:03:44.015Z,13.59
2023-09-27T03:06:16.016Z,13.59
2023-09-27T03:08:45.782Z,13.58
2023-09-27T03:11:14.709Z,13.61
2023-09-27T03:13:43.033Z,13.65
2023-09-27T03:16:13.292Z,13.63
2023-09-27T03:18:44.068Z,13.61
2023-09-27T03:21:13.538Z,13.58
2023-09-27T03:23:42.161Z,13.58
2023-09-27T03:26:10.223Z,13.58
2023-09-27T03:28:38.468Z,13.55
2023-09-27T03:31:07.768Z,13.55
2023-09-27T03:33:38.129Z,13.59
2023-09-27T03:36:08.700Z,13.61
2023-09-27T03:38:38.877Z,13.59
2023-09-27T03:41:10.231Z,13.59
2023-09-27T03:43:39.191Z,13.55
2023-09-27T03:46:09.932Z,13.51
2023-09-27T03:48:40.146Z,13.51
2023-09-27T03:51:09.792Z,13.51
2023-09-27T03:53:38.532Z,13.51
2023-09-27T03:56:06.854Z,13.54
2023-09-27T03:58:36.061Z,13.52
2023-09-27T04:01:05.403Z,13.55
2023-09-27T04:03:35.019Z,13.54
2023-09-27T04:06:06.697Z,13.52
2023-09-27T04:08:36.479Z,13.55
2023-09-27T04:11:06.533Z,13.57
2023-09-27T04:13:35.427Z,13.57
2023-09-27T04:16:05.012Z,13.54
2023-09-27T04:18:33.559Z,13.52
2023-09-27T04:21:12.226Z,13.51
2023-09-27T04:23:41.364Z,13.49
2023-09-27T04:26:10.367Z,13.45
2023-09-27T04:28:42.521Z,13.44
2023-09-27T04:31:11.212Z,13.42
2023-09-27T04:33:42.467Z,13.41
2023-09-27T04:36:16.778Z,13.38
2023-09-27T04:38:46.777Z,13.34
2023-09-27T04:41:19.208Z,13.31
2023-09-27T04:43:51.826Z,13.31
2023-09-27T04:46:23.181Z,13.27
2023-09-27T04:48:53.497Z,13.27
2023-09-27T04:51:25.488Z,13.20
2023-09-27T04:53:56.402Z,13.20
2023-09-27T04:56:24.886Z,13.16
2023-09-27T04:58:56.737Z,13.16
2023-09-27T05:01:28.440Z,13.13
2023-09-27T05:03:58.985Z,13.08
2023-09-27T05:06:31.787Z,13.08
2023-09-27T05:09:03.629Z,13.11
2023-09-27T05:11:35.011Z,13.08
2023-09-27T05:14:13.047Z,13.10
2023-09-27T05:16:45.371Z,13.13
2023-09-27T05:19:14.393Z,13.19
2023-09-27T05:21:47.246Z,13.26
2023-09-27T05:24:19.841Z,13.34
2023-09-27T05:26:49.351Z,13.40
2023-09-27T05:29:17.711Z,13.49
2023-09-27T05:31:46.247Z,13.63
2023-09-27T05:34:14.464Z,13.81
2023-09-27T05:36:42.785Z,13.96
2023-09-27T05:39:19.058Z,13.99
2023-09-27T05:41:50.555Z,13.95
2023-09-27T05:44:18.893Z,13.88
2023-09-27T05:46:47.210Z,13.86
2023-09-27T05:49:16.330Z,13.85
2023-09-27T05:51:44.829Z,13.88
2023-09-27T05:54:15.599Z,13.96
2023-09-27T05:56:47.140Z,14.19
2023-09-27T05:59:15.869Z,14.51
2023-09-27T06:01:48.740Z,14.84
2023-09-27T06:04:48.048Z,15.25
2023-09-27T06:07:18.891Z,15.51
2023-09-27T06:09:50.490Z,15.63
2023-09-27T06:12:19.512Z,15.78
2023-09-27T06:14:50.144Z,16.05
2023-09-27T06:17:28.737Z,16.39
2023-09-27T06:20:01.591Z,16.81
2023-09-27T06:22:31.423Z,17.25
2023-09-27T06:25:02.417Z,17.87
2023-09-27T06:27:32.141Z,18.44
2023-09-27T06:30:01.932Z,18.90
2023-09-27T06:32:30.155Z,19.14
2023-09-27T06:34:59.515Z,19.31
2023-09-27T06:37:30.444Z,19.51
2023-09-27T06:40:10.884Z,19.74
2023-09-27T06:42:49.781Z,19.98
2023-09-27T06:45:22.126Z,20.15
2023-09-27T06:47:52.557Z,20.20
2023-09-27T06:50:21.465Z,20.29
2023-09-27T06:52:57.829Z,20.29
2023-09-27T06:55:32.938Z,20.29
2023-09-27T06:58:08.553Z,20.30
2023-09-27T07:00:44.181Z,20.36
2023-09-27T07:03:13.307Z,20.44
2023-09-27T07:05:47.853Z,20.55
2023-09-27T07:08:23.796Z,20.84
2023-09-27T07:11:00.795Z,21.21
2023-09-27T07:13:32.611Z,21.59
2023-09-27T07:16:01.662Z,21.84
2023-09-27T07:18:30.085Z,22.11
2023-09-27T07:21:01.165Z,22.34
2023-09-27T07:23:33.125Z,22.59
2023-09-27T07:26:05.792Z,22.86
2023-09-27T07:28:38.266Z,23.12
2023-09-27T07:31:07.552Z,23.34
2023-09-27T07:33:39.805Z,23.58
2023-09-27T07:36:14.150Z,23.84
2023-09-27T07:38:48.201Z,24.15
2023-09-27T07:41:21.874Z,24.39
2023-09-27T07:43:57.104Z,24.56
2023-09-27T07:46:26.509Z,24.86
2023-09-27T07:48:54.971Z,24.99
2023-09-27T07:51:27.203Z,25.22
2023-09-27T07:53:56.544Z,25.46
2023-09-27T07:56:30.758Z,25.73
2023-09-27T07:59:02.551Z,25.96
2023-09-27T08:01:30.689Z,26.16
2023-09-27T08:04:10.091Z,26.30
2023-09-27T08:06:40.754Z,26.58
2023-09-27T08:09:20.275Z,26.86
2023-09-27T08:11:52.931Z,27.06
2023-09-27T08:14:23.290Z,27.34
2023-09-27T08:16:55.430Z,27.71
2023-09-27T08:19:24.688Z,27.99
2023-09-27T08:21:52.864Z,28.25
2023-09-27T08:24:21.206Z,28.53
2023-09-27T08:26:49.970Z,28.76
2023-09-27T08:29:19.863Z,28.97
2023-09-27T08:31:50.029Z,29.18
2023-09-27T08:34:19.754Z,29.51
2023-09-27T08:36:48.225Z,29.51
2023-09-27T08:39:21.591Z,29.48
2023-09-27T08:41:52.056Z,29.24
2023-09-27T08:44:21.272Z,29.27
2023-09-27T08:46:51.907Z,29.30
2023-09-27T08:49:20.702Z,29.24
2023-09-27T08:51:50.854Z,29.14
2023-09-27T08:54:22.532Z,29.17
2023-09-27T08:56:52.075Z,28.80
2023-09-27T08:59:21.173Z,28.94
2023-09-27T09:01:55.217Z,29.20
2023-09-27T09:04:24.151Z,29.38
2023-09-27T09:06:55.181Z,29.35
2023-09-27T09:09:27.708Z,29.51
2023-09-27T09:11:59.252Z,29.68
2023-09-27T09:14:44.524Z,29.94
2023-09-27T09:17:19.800Z,30.13
2023-09-27T09:20:17.490Z,30.26
2023-09-27T09:23:05.058Z,30.33
2023-09-27T09:25:44.538Z,30.43
2023-09-27T09:28:14.526Z,30.38
2023-09-27T09:30:48.110Z,30.48
2023-09-27T09:33:23.307Z,30.55
2023-09-27T09:35:54.310Z,30.58
2023-09-27T09:38:28.078Z,30.58
2023-09-27T09:41:00.660Z,30.49
2023-09-27T09:43:34.443Z,30.37
2023-09-27T09:46:10.293Z,30.34
2023-09-27T09:48:47.348Z,30.36
2023-09-27T09:51:17.579Z,30.38
2023-09-27T09:53:50.692Z,30.45
2023-09-27T09:56:30.528Z,30.43
2023-09-27T09:59:05.335Z,30.43
2023-09-27T10:01:38.322Z,30.52
2023-09-27T10:04:09.513Z,30.31
2023-09-27T10:06:49.047Z,30.19
2023-09-27T10:09:21.342Z,30.13
2023-09-27T10:11:50.092Z,30.10
2023-09-27T10:14:19.924Z,29.85
2023-09-27T10:16:51.681Z,29.27
2023-09-27T10:19:32.396Z,29.08
2023-09-27T10:22:09.420Z,29.18
2023-09-27T10:24:40.843Z,29.32
2023-09-27T10:27:09.095Z,29.43
2023-09-27T10:29:59.645Z,29.18
2023-09-27T10:32:29.795Z,29.01
2023-09-27T10:35:23.193Z,29.00
2023-09-27T10:38:05.811Z,29.08
2023-09-27T10:40:45.079Z,28.91
2023-09-27T10:43:15.791Z,29.07
2023-09-27T10:45:52.985Z,29.03
2023-09-27T10:48:25.859Z,29.13
2023-09-27T10:50:59.104Z,28.62
2023-09-27T10:53:28.471Z,28.22
2023-09-27T10:55:58.919Z,28.45
2023-09-27T10:58:29.554Z,28.74
2023-09-27T11:01:01.853Z,28.83
2023-09-27T11:03:34.513Z,28.77
2023-09-27T11:06:11.886Z,28.91
2023-09-27T11:08:46.701Z,29.00
2023-09-27T11:11:15.561Z,29.13
2023-09-27T11:13:44.655Z,29.13
2023-09-27T11:16:15.409Z,29.01
2023-09-27T11:18:50.118Z,28.98
2023-09-27T11:21:25.248Z,28.88
2023-09-27T11:23:55.272Z,28.95
2023-09-27T11:26:25.662Z,29.08
2023-09-27T11:29:03.503Z,29.24
2023-09-27T11:31:42.269Z,28.60
2023-09-27T11:34:16.392Z,28.43
2023-09-27T11:36:50.678Z,28.43
2023-09-27T11:39:20.692Z,28.46
2023-09-27T11:41:51.946Z,28.08
2023-09-27T11:44:23.471Z,28.14
2023-09-27T11:46:53.210Z,28.25
2023-09-27T11:49:28.850Z,28.47
2023-09-27T11:52:11.983Z,28.73
2023-09-27T11:54:43.542Z,28.82
2023-09-27T11:57:12.857Z,28.72
2023-09-27T11:59:43.022Z,28.45
2023-09-27T12:02:20.858Z,28.25
2023-09-27T12:04:53.297Z,28.29
2023-09-27T12:07:27.585Z,28.16
2023-09-27T12:09:58.658Z,27.39
2023-09-27T12:12:35.037Z,26.81
2023-09-27T12:15:04.741Z,26.67
2023-09-27T12:17:36.446Z,26.60
2023-09-27T12:20:07.562Z,26.49
2023-09-27T12:22:40.269Z,26.33
2023-09-27T12:25:09.697Z,26.37
2023-09-27T12:27:37.866Z,26.37
2023-09-27T12:30:07.306Z,26.41
2023-09-27T12:32:39.541Z,26.41
2023-09-27T12:35:08.623Z,26.40
2023-09-27T12:37:37.143Z,26.40
2023-09-27T12:40:09.172Z,26.38
2023-09-27T12:42:45.390Z,26.37
2023-09-27T12:45:13.570Z,26.35
2023-09-27T12:47:44.954Z,26.30
2023-09-27T12:50:21.449Z,26.31
2023-09-27T12:52:50.530Z,26.24
2023-09-27T12:55:22.586Z,26.21
2023-09-27T12:57:51.898Z,26.21
2023-09-27T13:00:22.688Z,26.24
2023-09-27T13:02:52.206Z,26.23
2023-09-27T13:05:23.173Z,26.20
2023-09-27T13:07:52.412Z,26.14
2023-09-27T13:10:24.434Z,26.10
2023-09-27T13:12:53.146Z,26.05
2023-09-27T13:15:22.053Z,26.00
2023-09-27T13:17:52.188Z,25.97
2023-09-27T13:20:24.044Z,25.92
2023-09-27T13:22:53.954Z,25.93
2023-09-27T13:25:28.422Z,25.89
2023-09-27T13:27:57.906Z,25.87
2023-09-27T13:30:35.577Z,25.83
2023-09-27T13:33:06.158Z,25.80
2023-09-27T13:35:37.237Z,25.82
2023-09-27T13:38:08.103Z,25.82
2023-09-27T13:40:38.244Z,25.80
2023-09-27T13:43:14.024Z,25.77
2023-09-27T13:45:47.349Z,25.77
2023-09-27T13:48:17.944Z,25.77
2023-09-27T13:50:50.506Z,25.76
2023-09-27T13:53:20.020Z,25.75
2023-09-27T13:55:51.534Z,25.75
2023-09-27T13:58:20.290Z,25.79
2023-09-27T14:00:49.158Z,25.79
2023-09-27T14:03:21.343Z,25.84
2023-09-27T14:05:53.044Z,25.83
2023-09-27T14:08:35.212Z,25.89
2023-09-27T14:11:04.783Z,25.89
2023-09-27T14:13:35.527Z,25.87
2023-09-27T14:16:07.821Z,25.92
2023-09-27T14:18:40.416Z,25.96
2023-09-27T14:21:12.412Z,25.97
2023-09-27T14:23:44.360Z,25.90
2023-09-27T14:26:22.043Z,25.93
2023-09-27T14:28:54.083Z,25.92
2023-09-27T14:31:30.163Z,25.89
2023-09-27T14:34:05.783Z,25.90
2023-09-27T14:36:39.104Z,25.87
2023-09-27T14:39:13.625Z,25.93
2023-09-27T14:41:54.614Z,25.96
2023-09-27T14:44:24.092Z,25.97
2023-09-27T14:46:59.627Z,25.94
2023-09-27T14:49:37.786Z,25.92
2023-09-27T14:52:09.875Z,25.86
2023-09-27T14:54:40.855Z,25.83
2023-09-27T14:57:18.190Z,25.82
2023-09-27T14:59:51.098Z,25.77
2023-09-27T15:02:28.938Z,25.76
2023-09-27T15:04:58.628Z,25.72
2023-09-27T15:07:27.675Z,25.66
2023-09-27T15:09:57.470Z,25.62
2023-09-27T15:12:31.841Z,25.56
2023-09-27T15:15:03.640Z,25.50
2023-09-27T15:17:42.000Z,25.46
2023-09-27T15:20:12.586Z,25.42
2023-09-27T15:22:49.271Z,25.39
2023-09-27T15:25:22.162Z,25.35
2023-09-27T15:27:54.711Z,25.31
2023-09-27T15:30:25.526Z,25.26
2023-09-27T15:32:56.385Z,25.22
2023-09-27T15:35:30.476Z,25.19
2023-09-27T15:38:03.267Z,25.14
2023-09-27T15:40:33.429Z,25.07
2023-09-27T15:43:04.841Z,25.02
2023-09-27T15:45:34.180Z,24.98
2023-09-27T15:48:10.316Z,24.97
2023-09-27T15:50:42.512Z,24.90
2023-09-27T15:53:13.906Z,24.84
2023-09-27T15:55:44.347Z,24.80
2023-09-27T15:58:16.400Z,24.76
2023-09-27T16:00:47.618Z,24.73
2023-09-27T16:03:21.495Z,24.66
2023-09-27T16:05:50.703Z,24.63
2023-09-27T16:08:23.256Z,24.61
2023-09-27T16:10:55.388Z,24.57
2023-09-27T16:13:32.211Z,24.56
2023-09-27T16:16:02.640Z,24.50
2023-09-27T16:18:32.330Z,24.49
2023-09-27T16:21:02.231Z,24.41
2023-09-27T16:23:31.111Z,24.37
2023-09-27T16:26:01.281Z,24.32
2023-09-27T16:28:32.235Z,24.25
2023-09-27T16:31:06.853Z,24.18
2023-09-27T16:33:40.019Z,24.10
2023-09-27T16:36:09.037Z,24.05
2023-09-27T16:38:45.187Z,23.98
2023-09-27T16:41:17.219Z,23.93
2023-09-27T16:43:51.119Z,23.82
2023-09-27T16:46:21.373Z,23.78
2023-09-27T16:48:52.579Z,23.74
2023-09-27T16:51:21.909Z,23.65
2023-09-27T16:53:50.076Z,23.54
2023-09-27T16:56:23.885Z,23.50
2023-09-27T16:58:53.785Z,23.43
2023-09-27T17:01:24.384Z,23.33
2023-09-27T17:03:55.044Z,23.28
2023-09-27T17:06:25.643Z,23.17
2023-09-27T17:08:57.012Z,23.12
2023-09-27T17:11:26.978Z,23.04
2023-09-27T17:13:57.666Z,22.99
2023-09-27T17:16:28.660Z,22.92
2023-09-27T17:18:58.138Z,22.85
2023-09-27T17:21:28.403Z,22.75
2023-09-27T17:23:58.633Z,22.66
2023-09-27T17:26:26.979Z,22.59
2023-09-27T17:28:59.323Z,22.55
2023-09-27T17:31:28.013Z,22.51
2023-09-27T17:33:58.318Z,22.42
2023-09-27T17:36:28.724Z,22.37
2023-09-27T17:38:57.082Z,22.34
2023-09-27T17:41:28.655Z,22.25
2023-09-27T17:44:00.301Z,22.20
2023-09-27T17:46:32.178Z,22.14
2023-09-27T17:49:01.971Z,22.08
2023-09-27T17:51:34.754Z,22.02
2023-09-27T17:54:04.383Z,21.97
2023-09-27T17:56:33.188Z,21.96
2023-09-27T17:59:05.919Z,21.94
2023-09-27T18:01:38.297Z,21.90
2023-09-27T18:04:09.441Z,21.87
2023-09-27T18:06:40.351Z,21.81
2023-09-27T18:09:12.337Z,21.73
2023-09-27T18:11:40.617Z,21.73
2023-09-27T18:14:10.688Z,21.65
2023-09-27T18:16:39.083Z,21.63
2023-09-27T18:19:07.850Z,21.63
2023-09-27T18:21:36.102Z,21.56
2023-09-27T18:24:05.851Z,21.53
2023-09-27T18:26:34.026Z,21.50
2023-09-27T18:29:03.729Z,21.45
2023-09-27T18:31:34.515Z,21.43
2023-09-27T18:34:04.124Z,21.38
2023-09-27T18:36:31.671Z,21.39
2023-09-27T18:38:59.898Z,21.35
2023-09-27T18:41:30.186Z,21.32
2023-09-27T18:43:59.960Z,21.25
2023-09-27T18:46:28.766Z,21.23
2023-09-27T18:49:01.321Z,21.16
2023-09-27T18:51:31.538Z,21.11
2023-09-27T18:53:59.836Z,21.08
2023-09-27T18:56:28.130Z,21.05
2023-09-27T18:59:00.120Z,21.02
2023-09-27T19:01:32.010Z,21.01
2023-09-27T19:04:04.553Z,21.01
2023-09-27T19:06:32.946Z,20.99
2023-09-27T19:09:03.830Z,20.98
2023-09-27T19:11:33.386Z,20.96
2023-09-27T19:14:03.493Z,20.96
2023-09-27T19:16:38.675Z,20.99
2023-09-27T19:19:09.834Z,20.96
2023-09-27T19:21:38.966Z,20.90
2023-09-27T19:24:08.728Z,20.87
2023-09-27T19:26:37.028Z,20.85
2023-09-27T19:29:05.772Z,20.84
2023-09-27T19:31:34.189Z,20.85
2023-09-27T19:34:02.997Z,20.87
2023-09-27T19:36:34.983Z,20.84
2023-09-27T19:39:03.126Z,20.85
2023-09-27T19:41:31.795Z,20.80
2023-09-27T19:44:00.429Z,20.81
2023-09-27T19:46:30.062Z,20.75
2023-09-27T19:48:58.160Z,20.73
2023-09-27T19:51:28.941Z,20.70
2023-09-27T19:54:03.468Z,20.67
2023-09-27T19:56:32.140Z,20.67
2023-09-27T19:59:01.440Z,20.65
2023-09-27T20:01:32.704Z,20.63
2023-09-27T20:04:01.782Z,20.60
2023-09-27T20:06:36.568Z,20.57
2023-09-27T20:09:10.532Z,20.53
2023-09-27T20:11:41.397Z,20.45
2023-09-27T20:14:12.929Z,20.39
2023-09-27T20:16:42.027Z,20.30
2023-09-27T20:19:10.808Z,20.20
2023-09-27T20:21:39.945Z,20.12
2023-09-27T20:24:10.673Z,20.06
2023-09-27T20:26:40.360Z,20.01
2023-09-27T20:29:10.486Z,19.89
2023-09-27T20:31:41.297Z,19.83
2023-09-27T20:34:09.449Z,19.78
2023-09-27T20:36:38.152Z,19.79
2023-09-27T20:39:07.281Z,19.76
2023-09-27T20:41:37.009Z,19.74
2023-09-27T20:44:06.612Z,19.69
2023-09-27T20:46:35.808Z,19.62
2023-09-27T20:49:06.296Z,19.58
2023-09-27T20:51:38.870Z,19.54
2023-09-27T20:54:08.100Z,19.45
2023-09-27T20:56:40.411Z,19.41
2023-09-27T20:59:09.293Z,19.33
2023-09-27T21:01:41.998Z,19.26
2023-09-27T21:04:11.550Z,19.16
2023-09-27T21:06:40.199Z,19.13
2023-09-27T21:09:08.622Z,19.07
2023-09-27T21:11:38.434Z,19.00
2023-09-27T21:14:07.546Z,18.92
2023-09-27T21:16:38.848Z,18.86
2023-09-27T21:19:07.353Z,18.76
2023-09-27T21:21:36.837Z,18.68
2023-09-27T21:24:06.256Z,18.59
2023-09-27T21:26:34.406Z,18.53
2023-09-27T21:29:04.945Z,18.45
2023-09-27T21:31:36.605Z,18.42
2023-09-27T21:34:04.789Z,18.34
2023-09-27T21:36:37.261Z,18.31
2023-09-27T21:39:05.640Z,18.22
2023-09-27T21:41:34.125Z,18.20
2023-09-27T21:44:03.109Z,18.17
2023-09-27T21:46:37.089Z,18.16
2023-09-27T21:49:07.334Z,18.10
2023-09-27T21:51:37.586Z,18.03
2023-09-27T21:54:07.643Z,17.99
2023-09-27T21:56:38.488Z,17.94
2023-09-27T21:59:07.402Z,17.90
2023-09-27T22:01:38.411Z,17.84
2023-09-27T22:04:08.410Z,17.83
2023-09-27T22:06:36.670Z,17.77
2023-09-27T22:09:05.859Z,17.74
2023-09-27T22:11:34.595Z,17.69
2023-09-27T22:14:06.409Z,17.67
2023-09-27T22:16:37.794Z,17.63
2023-09-27T22:19:12.616Z,17.59
2023-09-27T22:21:47.045Z,17.55
2023-09-27T22:24:22.199Z,17.49
2023-09-27T22:26:52.757Z,17.45
2023-09-27T22:29:21.860Z,17.43
2023-09-27T22:31:58.823Z,17.42
2023-09-27T22:34:38.595Z,17.41
2023-09-27T22:37:09.552Z,17.39
2023-09-27T22:39:41.729Z,17.41
2023-09-27T22:42:14.560Z,17.38
2023-09-27T22:44:44.831Z,17.31
2023-09-27T22:47:15.152Z,17.27
2023-09-27T22:49:43.418Z,17.22
2023-09-27T22:52:12.125Z,17.19
2023-09-27T22:54:41.813Z,17.15
2023-09-27T22:57:10.731Z,17.08
2023-09-27T22:59:39.932Z,17.05
2023-09-27T23:02:11.563Z,17.00
2023-09-27T23:04:42.696Z,16.94
2023-09-27T23:07:18.089Z,16.91
2023-09-27T23:09:48.397Z,16.87
2023-09-27T23:12:25.363Z,16.85
2023-09-27T23:15:11.756Z,16.84
2023-09-27T23:18:01.751Z,16.77
2023-09-27T23:20:32.604Z,16.74
2023-09-27T23:23:09.336Z,16.71
2023-09-27T23:25:52.714Z,16.69
2023-09-27T23:28:31.674Z,16.67
2023-09-27T23:31:12.620Z,16.62
2023-09-27T23:33:46.280Z,16.60
2023-09-27T23:36:24.983Z,16.55
2023-09-27T23:39:17.886Z,16.49
2023-09-27T23:41:50.146Z,16.44
2023-09-27T23:44:20.358Z,16.43
2023-09-27T23:46:52.435Z,16.39
2023-09-27T23:49:21.783Z,16.35
2023-09-27T23:51:55.207Z,16.29
2023-09-27T23:54:25.653Z,16.23
2023-09-27T23:57:00.364Z,16.18
2023-09-27T23:59:31.588Z,16.14
